Dades meteomassalio
Diari Summary for Juliol 2, 2017 Units:  Metric    English   Both
« Previous Day
Next Day »
Diari Semanal Mensual Anual Personalitzat
  Maxima: Minima: Mijana:
Temperatura: 28.1 °C 13.8 °C 20.3 °C
Rosada: 10.6 °C 7.2 °C 9 °C
Humitat: 66 % 33 % 50 %
Velocitat del vent: 46.3 km/h 0.0 km/h 20.8 km/h
Racha vent: 46.3 km/h - -
Vent:- - WNW
Pressio: 1025.3 hPa 1020.5 hPa -
Pluja: 0.0 mm    
Historical Graphs
 
 
Tabular Data for Juliol 2, 2017
Time Temperature Dew Point Pressure Wind Wind Speed Wind Gust Humidity Rainfall Rate (Hourly) solar Conditions
00:03 16.2 °C 9.2 °C 1024.9 hPa West 18.5 km/h 18.5 km/h 63 % 0.0 mm 0.0 W/m2 CLR
00:08 16.2 °C 9.1 °C 1024.9 hPa West 18.5 km/h 18.5 km/h 63 % 0.0 mm 0.0 W/m2 CLR
00:13 16.1 °C 9.0 °C 1024.9 hPa WNW 13.0 km/h 13.0 km/h 63 % 0.0 mm 0.0 W/m2 CLR
00:18 16.0 °C 8.9 °C 1024.9 hPa West 24.1 km/h 24.1 km/h 63 % 0.0 mm 0.0 W/m2 CLR
00:23 15.9 °C 8.9 °C 1024.9 hPa WNW 20.4 km/h 20.4 km/h 63 % 0.0 mm 0.0 W/m2 CLR
00:28 15.9 °C 8.8 °C 1024.9 hPa West 18.5 km/h 18.5 km/h 63 % 0.0 mm 0.0 W/m2 CLR
00:33 15.8 °C 8.8 °C 1024.9 hPa West 20.4 km/h 20.4 km/h 63 % 0.0 mm 0.0 W/m2 CLR
00:38 15.7 °C 8.7 °C 1024.9 hPa WNW 20.4 km/h 20.4 km/h 63 % 0.0 mm 0.0 W/m2 CLR
00:43 15.6 °C 8.8 °C 1024.9 hPa West 22.5 km/h 22.5 km/h 64 % 0.0 mm 0.0 W/m2 CLR
00:48 15.6 °C 8.6 °C 1025.3 hPa West 20.4 km/h 20.4 km/h 63 % 0.0 mm 0.0 W/m2 CLR
00:53 15.6 °C 8.6 °C 1024.9 hPa WNW 25.9 km/h 25.9 km/h 63 % 0.0 mm 0.0 W/m2 CLR
00:58 15.5 °C 8.5 °C 1025.3 hPa NW 18.5 km/h 18.5 km/h 63 % 0.0 mm 0.0 W/m2 CLR
01:03 15.4 °C 8.6 °C 1025.3 hPa West 22.2 km/h 22.2 km/h 64 % 0.0 mm 0.0 W/m2 CLR
01:08 15.3 °C 8.6 °C 1024.9 hPa West 35.2 km/h 35.2 km/h 64 % 0.0 mm 0.0 W/m2 CLR
01:13 15.3 °C 8.6 °C 1024.9 hPa NW 22.2 km/h 22.2 km/h 64 % 0.0 mm 0.0 W/m2 CLR
01:18 15.3 °C 8.6 °C 1024.9 hPa WNW 20.4 km/h 20.4 km/h 64 % 0.0 mm 0.0 W/m2 CLR
01:23 15.3 °C 8.6 °C 1024.9 hPa West 24.1 km/h 24.1 km/h 64 % 0.0 mm 0.0 W/m2 CLR
01:28 15.3 °C 8.5 °C 1025.3 hPa WNW 24.1 km/h 24.1 km/h 64 % 0.0 mm 0.0 W/m2 CLR
01:33 15.2 °C 8.4 °C 1025.3 hPa West 22.2 km/h 22.2 km/h 64 % 0.0 mm 0.0 W/m2 CLR
01:38 15.2 °C 8.4 °C 1025.3 hPa West 25.9 km/h 25.9 km/h 64 % 0.0 mm 0.0 W/m2 CLR
01:43 15.2 °C 8.4 °C 1025.3 hPa West 25.9 km/h 25.9 km/h 64 % 0.0 mm 0.0 W/m2 CLR
01:48 15.2 °C 8.2 °C 1025.3 hPa West 24.1 km/h 24.1 km/h 63 % 0.0 mm 0.0 W/m2 CLR
01:53 15.2 °C 8.2 °C 1024.9 hPa WNW 37.0 km/h 37.0 km/h 63 % 0.0 mm 0.0 W/m2 CLR
01:58 15.1 °C 8.1 °C 1024.9 hPa West 24.1 km/h 24.1 km/h 63 % 0.0 mm 0.0 W/m2 CLR
02:03 15.1 °C 8.1 °C 1024.9 hPa WNW 25.9 km/h 25.9 km/h 63 % 0.0 mm 0.0 W/m2 CLR
02:08 15.0 °C 8.0 °C 1024.9 hPa West 22.2 km/h 22.2 km/h 63 % 0.0 mm 0.0 W/m2 CLR
02:13 14.9 °C 7.9 °C 1024.9 hPa West 25.9 km/h 25.9 km/h 63 % 0.0 mm 0.0 W/m2 CLR
02:18 14.9 °C 7.9 °C 1024.9 hPa West 31.5 km/h 31.5 km/h 63 % 0.0 mm 0.0 W/m2 CLR
02:23 14.9 °C 7.9 °C 1024.9 hPa WNW 31.5 km/h 31.5 km/h 63 % 0.0 mm 0.0 W/m2 CLR
02:28 14.9 °C 7.9 °C 1024.9 hPa WNW 27.4 km/h 27.4 km/h 63 % 0.0 mm 0.0 W/m2 CLR
02:33 14.9 °C 7.9 °C 1024.9 hPa West 37.0 km/h 37.0 km/h 63 % 0.0 mm 0.0 W/m2 CLR
02:38 14.8 °C 7.8 °C 1024.9 hPa WNW 30.6 km/h 30.6 km/h 63 % 0.0 mm 0.0 W/m2 CLR
02:43 14.8 °C 7.8 °C 1024.9 hPa West 33.3 km/h 33.3 km/h 63 % 0.0 mm 0.0 W/m2 CLR
02:48 14.8 °C 7.8 °C 1024.9 hPa West 33.3 km/h 33.3 km/h 63 % 0.0 mm 0.0 W/m2 CLR
02:53 14.8 °C 7.8 °C 1024.9 hPa WSW 35.2 km/h 35.2 km/h 63 % 0.0 mm 0.0 W/m2 CLR
02:58 14.8 °C 7.8 °C 1024.6 hPa WNW 31.5 km/h 31.5 km/h 63 % 0.0 mm 0.0 W/m2 CLR
03:03 14.8 °C 7.8 °C 1024.6 hPa West 40.7 km/h 40.7 km/h 63 % 0.0 mm 0.0 W/m2 CLR
03:08 14.8 °C 7.8 °C 1024.6 hPa West 42.6 km/h 42.6 km/h 63 % 0.0 mm 0.0 W/m2 CLR
03:13 14.8 °C 7.8 °C 1024.6 hPa West 37.0 km/h 37.0 km/h 63 % 0.0 mm 0.0 W/m2 CLR
03:14 14.8 °C 8.1 °C 1024.6 hPa West 37.0 km/h 37.0 km/h 64 % 0.0 mm 0.0 W/m2 CLR
03:19 14.7 °C 8.0 °C 1024.3 hPa WNW 33.8 km/h 33.8 km/h 64 % 0.0 mm 0.0 W/m2 CLR
03:24 14.7 °C 8.0 °C 1024.3 hPa WSW 33.8 km/h 33.8 km/h 64 % 0.0 mm 0.0 W/m2 CLR
03:29 14.7 °C 8.0 °C 1024.3 hPa WNW 40.7 km/h 40.7 km/h 64 % 0.0 mm 0.0 W/m2 CLR
03:34 14.7 °C 7.9 °C 1024.3 hPa West 38.9 km/h 38.9 km/h 64 % 0.0 mm 0.0 W/m2 CLR
03:39 14.6 °C 7.9 °C 1024.3 hPa NW 46.3 km/h 46.3 km/h 64 % 0.0 mm 0.0 W/m2 CLR
03:44 14.7 °C 7.9 °C 1024.3 hPa WNW 37.0 km/h 37.0 km/h 64 % 0.0 mm 0.0 W/m2 CLR
03:49 14.6 °C 7.9 °C 1024.6 hPa WNW 38.9 km/h 38.9 km/h 64 % 0.0 mm 0.0 W/m2 CLR
03:54 14.6 °C 8.1 °C 1024.3 hPa West 37.0 km/h 37.0 km/h 65 % 0.0 mm 0.0 W/m2 CLR
03:59 14.6 °C 7.9 °C 1024.3 hPa WNW 29.6 km/h 29.6 km/h 64 % 0.0 mm 0.0 W/m2 CLR
04:04 14.6 °C 8.1 °C 1024.6 hPa West 29.6 km/h 29.6 km/h 65 % 0.0 mm 0.0 W/m2 CLR
04:05 14.6 °C 7.8 °C 1024.6 hPa West 31.5 km/h 31.5 km/h 64 % 0.0 mm 0.0 W/m2 CLR
04:10 14.5 °C 7.8 °C 1024.6 hPa WNW 27.8 km/h 27.8 km/h 64 % 0.0 mm 0.0 W/m2 CLR
04:15 14.5 °C 8.0 °C 1024.6 hPa WNW 27.8 km/h 27.8 km/h 65 % 0.0 mm 0.0 W/m2 CLR
04:20 14.5 °C 7.8 °C 1024.6 hPa WNW 24.1 km/h 24.1 km/h 64 % 0.0 mm 0.0 W/m2 CLR
04:25 14.5 °C 7.8 °C 1024.6 hPa WNW 24.1 km/h 24.1 km/h 64 % 0.0 mm 0.0 W/m2 CLR
04:30 14.5 °C 7.8 °C 1024.6 hPa West 30.6 km/h 30.6 km/h 64 % 0.0 mm 0.0 W/m2 CLR
04:35 14.4 °C 7.7 °C 1024.3 hPa WNW 27.8 km/h 27.8 km/h 64 % 0.0 mm 0.0 W/m2 CLR
04:40 14.4 °C 7.9 °C 1024.3 hPa WNW 29.6 km/h 29.6 km/h 65 % 0.0 mm 0.0 W/m2 CLR
04:45 14.3 °C 7.8 °C 1024.3 hPa WNW 27.8 km/h 27.8 km/h 65 % 0.0 mm 0.0 W/m2 CLR
04:50 14.3 °C 7.8 °C 1024.3 hPa WNW 27.8 km/h 27.8 km/h 65 % 0.0 mm 0.0 W/m2 CLR
04:55 14.3 °C 7.8 °C 1024.6 hPa West 27.8 km/h 27.8 km/h 65 % 0.0 mm 0.0 W/m2 CLR
05:00 14.2 °C 7.7 °C 1024.6 hPa West 24.1 km/h 24.1 km/h 65 % 0.0 mm 0.0 W/m2 CLR
05:05 14.2 °C 7.9 °C 1024.6 hPa West 27.8 km/h 27.8 km/h 66 % 0.0 mm 0.0 W/m2 CLR
05:10 14.1 °C 7.6 °C 1024.6 hPa West 19.3 km/h 19.3 km/h 65 % 0.0 mm 0.0 W/m2 CLR
05:15 14.1 °C 7.8 °C 1024.6 hPa West 18.5 km/h 18.5 km/h 66 % 0.0 mm 0.0 W/m2 CLR
05:20 14.1 °C 7.8 °C 1024.6 hPa West 29.6 km/h 29.6 km/h 66 % 0.0 mm 0.0 W/m2 CLR
05:25 14.0 °C 7.7 °C 1024.6 hPa West 25.9 km/h 25.9 km/h 66 % 0.0 mm 0.0 W/m2 CLR
05:30 14.0 °C 7.7 °C 1024.6 hPa West 18.5 km/h 18.5 km/h 66 % 0.0 mm 0.0 W/m2 CLR
05:35 13.9 °C 7.7 °C 1024.6 hPa WNW 24.1 km/h 24.1 km/h 66 % 0.0 mm 0.0 W/m2 CLR
05:40 13.9 °C 7.6 °C 1024.6 hPa West 25.7 km/h 25.7 km/h 66 % 0.0 mm 0.0 W/m2 CLR
05:45 13.9 °C 7.6 °C 1024.6 hPa WNW 24.1 km/h 24.1 km/h 66 % 0.0 mm 0.0 W/m2 CLR
05:50 13.9 °C 7.6 °C 1024.3 hPa West 31.5 km/h 31.5 km/h 66 % 0.0 mm 0.0 W/m2 CLR
05:55 13.9 °C 7.6 °C 1024.6 hPa WNW 27.8 km/h 27.8 km/h 66 % 0.0 mm 0.0 W/m2 CLR
06:00 13.8 °C 7.6 °C 1024.6 hPa West 22.2 km/h 22.2 km/h 66 % 0.0 mm 0.0 W/m2 CLR
06:05 13.9 °C 7.6 °C 1024.6 hPa West 22.2 km/h 22.2 km/h 66 % 0.0 mm 0.0 W/m2 CLR
06:10 13.9 °C 7.6 °C 1024.6 hPa West 20.4 km/h 20.4 km/h 66 % 0.0 mm 0.0 W/m2 CLR
06:15 13.9 °C 7.4 °C 1024.6 hPa WSW 25.9 km/h 25.9 km/h 65 % 0.0 mm 0.0 W/m2 CLR
06:20 14.0 °C 7.5 °C 1024.6 hPa WNW 25.9 km/h 25.9 km/h 65 % 0.0 mm 0.0 W/m2 CLR
06:25 13.9 °C 7.4 °C 1024.6 hPa WNW 22.2 km/h 22.2 km/h 65 % 0.0 mm 0.0 W/m2 OVC
06:26 13.9 °C 7.4 °C 1024.6 hPa WNW 20.4 km/h 20.4 km/h 65 % 0.0 mm 0.0 W/m2 OVC
06:31 13.9 °C 7.4 °C 1024.6 hPa WNW 20.4 km/h 20.4 km/h 65 % 0.0 mm 0.0 W/m2 OVC
06:36 13.9 °C 7.4 °C 1024.9 hPa WNW 19.3 km/h 19.3 km/h 65 % 0.0 mm 5.0 W/m2 OVC
06:41 13.9 °C 7.4 °C 1024.9 hPa WSW 18.5 km/h 18.5 km/h 65 % 0.0 mm 9.0 W/m2 BKN
06:46 13.8 °C 7.4 °C 1024.9 hPa West 22.2 km/h 22.2 km/h 65 % 0.0 mm 11.0 W/m2 BKN
06:51 13.8 °C 7.3 °C 1024.9 hPa WSW 16.7 km/h 16.7 km/h 65 % 0.0 mm 12.0 W/m2 BKN
06:56 13.8 °C 7.4 °C 1024.9 hPa West 18.5 km/h 18.5 km/h 65 % 0.0 mm 16.0 W/m2 BKN
07:01 13.8 °C 7.4 °C 1024.9 hPa WSW 17.7 km/h 17.7 km/h 65 % 0.0 mm 16.0 W/m2 BKN
07:06 13.8 °C 7.4 °C 1024.9 hPa West 19.3 km/h 19.3 km/h 65 % 0.0 mm 21.0 W/m2 BKN
07:11 13.9 °C 7.4 °C 1024.9 hPa WSW 17.7 km/h 17.7 km/h 65 % 0.0 mm 32.0 W/m2 BKN
07:16 13.9 °C 7.2 °C 1024.9 hPa West 22.2 km/h 22.2 km/h 64 % 0.0 mm 42.0 W/m2 BKN
07:21 14.0 °C 7.3 °C 1024.9 hPa West 18.5 km/h 18.5 km/h 64 % 0.0 mm 53.0 W/m2 SCT
07:26 14.1 °C 7.3 °C 1024.9 hPa West 16.1 km/h 16.1 km/h 64 % 0.0 mm 63.0 W/m2 SCT
07:31 14.2 °C 7.4 °C 1024.9 hPa West 22.2 km/h 22.2 km/h 64 % 0.0 mm 77.0 W/m2 FEW
07:36 14.2 °C 7.3 °C 1024.9 hPa West 18.5 km/h 18.5 km/h 63 % 0.0 mm 90.0 W/m2 FEW
07:41 14.4 °C 7.4 °C 1024.9 hPa WNW 22.2 km/h 22.2 km/h 63 % 0.0 mm 105.0 W/m2 CLR
07:46 14.5 °C 7.6 °C 1025.3 hPa West 22.2 km/h 22.2 km/h 63 % 0.0 mm 121.0 W/m2 CLR
07:51 14.6 °C 7.4 °C 1025.3 hPa West 24.1 km/h 24.1 km/h 62 % 0.0 mm 139.0 W/m2 CLR
07:56 14.7 °C 7.5 °C 1024.9 hPa WNW 18.5 km/h 18.5 km/h 62 % 0.0 mm 153.0 W/m2 CLR
08:01 14.8 °C 7.6 °C 1025.3 hPa West 22.5 km/h 22.5 km/h 62 % 0.0 mm 169.0 W/m2 CLR
08:06 14.9 °C 7.5 °C 1025.3 hPa WNW 29.6 km/h 29.6 km/h 61 % 0.0 mm 186.0 W/m2 CLR
08:11 15.0 °C 7.6 °C 1025.3 hPa West 29.6 km/h 29.6 km/h 61 % 0.0 mm 206.0 W/m2 CLR
08:16 15.2 °C 7.7 °C 1025.3 hPa NW 25.9 km/h 25.9 km/h 61 % 0.0 mm 221.0 W/m2 CLR
08:21 15.3 °C 7.8 °C 1025.3 hPa WSW 24.1 km/h 24.1 km/h 61 % 0.0 mm 237.0 W/m2 CLR
08:26 15.4 °C 7.9 °C 1025.3 hPa West 20.4 km/h 20.4 km/h 61 % 0.0 mm 251.0 W/m2 CLR
08:31 15.5 °C 7.8 °C 1025.3 hPa WNW 29.6 km/h 29.6 km/h 60 % 0.0 mm 269.0 W/m2 CLR
08:36 15.7 °C 7.9 °C 1025.3 hPa West 20.4 km/h 20.4 km/h 60 % 0.0 mm 285.0 W/m2 CLR
08:41 15.6 °C 7.9 °C 1025.3 hPa West 33.3 km/h 33.3 km/h 60 % 0.0 mm 299.0 W/m2 CLR
08:46 15.6 °C 7.8 °C 1025.3 hPa NW 27.8 km/h 27.8 km/h 60 % 0.0 mm 313.0 W/m2 CLR
08:51 15.8 °C 8.1 °C 1025.3 hPa WNW 31.5 km/h 31.5 km/h 60 % 0.0 mm 329.0 W/m2 CLR
08:56 16.1 °C 8.1 °C 1025.3 hPa WNW 18.5 km/h 18.5 km/h 59 % 0.0 mm 346.0 W/m2 CLR
09:01 16.3 °C 8.1 °C 1025.3 hPa West 31.5 km/h 31.5 km/h 58 % 0.0 mm 362.0 W/m2 CLR
09:06 16.3 °C 8.3 °C 1025.3 hPa WNW 31.5 km/h 31.5 km/h 59 % 0.0 mm 376.0 W/m2 CLR
09:11 16.2 °C 8.2 °C 1025.3 hPa NW 31.5 km/h 31.5 km/h 59 % 0.0 mm 390.0 W/m2 CLR
09:16 16.3 °C 8.2 °C 1025.3 hPa WNW 27.8 km/h 27.8 km/h 59 % 0.0 mm 408.0 W/m2 CLR
09:21 16.6 °C 8.3 °C 1025.3 hPa West 29.6 km/h 29.6 km/h 58 % 0.0 mm 422.0 W/m2 CLR
09:26 16.8 °C 8.8 °C 1025.3 hPa West 19.3 km/h 19.3 km/h 59 % 0.0 mm 439.0 W/m2 CLR
09:31 16.7 °C 8.4 °C 1025.3 hPa West 25.9 km/h 25.9 km/h 58 % 0.0 mm 454.0 W/m2 CLR
09:36 16.8 °C 8.5 °C 1025.3 hPa NW 25.7 km/h 25.7 km/h 58 % 0.0 mm 475.0 W/m2 CLR
09:41 17.1 °C 8.5 °C 1025.3 hPa WNW 32.2 km/h 32.2 km/h 57 % 0.0 mm 487.0 W/m2 CLR
09:47 17.1 °C 8.8 °C 1025.3 hPa West 22.2 km/h 22.2 km/h 58 % 0.0 mm 499.0 W/m2 CLR
09:52 17.2 °C 8.6 °C 1025.3 hPa West 27.8 km/h 27.8 km/h 57 % 0.0 mm 526.0 W/m2 CLR
09:57 17.5 °C 8.9 °C 1025.3 hPa West 29.6 km/h 29.6 km/h 57 % 0.0 mm 538.0 W/m2 CLR
10:02 17.3 °C 8.9 °C 1024.9 hPa NW 24.1 km/h 24.1 km/h 58 % 0.0 mm 573.0 W/m2 CLR
10:07 17.6 °C 9.0 °C 1024.9 hPa WNW 25.9 km/h 25.9 km/h 57 % 0.0 mm 564.0 W/m2 CLR
10:12 17.9 °C 8.8 °C 1024.9 hPa NW 27.4 km/h 27.4 km/h 55 % 0.0 mm 577.0 W/m2 CLR
10:17 18.0 °C 8.8 °C 1024.9 hPa NNW 31.5 km/h 31.5 km/h 55 % 0.0 mm 596.0 W/m2 CLR
10:22 17.9 °C 8.8 °C 1024.9 hPa West 33.3 km/h 33.3 km/h 55 % 0.0 mm 601.0 W/m2 CLR
10:27 17.9 °C 8.8 °C 1024.9 hPa WNW 31.5 km/h 31.5 km/h 55 % 0.0 mm 621.0 W/m2 CLR
10:32 18.2 °C 9.0 °C 1024.9 hPa NNW 27.8 km/h 27.8 km/h 55 % 0.0 mm 633.0 W/m2 CLR
10:37 18.4 °C 9.2 °C 1024.9 hPa NW 20.4 km/h 20.4 km/h 55 % 0.0 mm 643.0 W/m2 CLR
10:42 18.8 °C 9.1 °C 1024.9 hPa WNW 31.5 km/h 31.5 km/h 53 % 0.0 mm 657.0 W/m2 CLR
10:47 18.8 °C 9.0 °C 1024.9 hPa NNW 27.8 km/h 27.8 km/h 53 % 0.0 mm 670.0 W/m2 CLR
10:52 18.9 °C 9.2 °C 1024.9 hPa NW 27.8 km/h 27.8 km/h 53 % 0.0 mm 682.0 W/m2 CLR
10:58 19.0 °C 9.2 °C 1024.9 hPa NW 33.8 km/h 33.8 km/h 53 % 0.0 mm 694.0 W/m2 CLR
11:02 19.0 °C 8.9 °C 1024.9 hPa WNW 24.1 km/h 24.8 km/h 52 % 0.0 mm 707.0 W/m2 CLR
11:07 19.2 °C 9.1 °C 1024.9 hPa West 31.5 km/h 31.5 km/h 52 % 0.0 mm 717.0 W/m2 CLR
11:12 19.2 °C 9.1 °C 1024.9 hPa NW 24.1 km/h 24.1 km/h 52 % 0.0 mm 731.0 W/m2 CLR
11:17 19.6 °C 9.5 °C 1024.9 hPa NW 18.5 km/h 18.5 km/h 52 % 0.0 mm 740.0 W/m2 CLR
11:23 20.0 °C 9.6 °C 1024.6 hPa West 25.7 km/h 25.7 km/h 51 % 0.0 mm 752.0 W/m2 CLR
11:28 19.9 °C 9.4 °C 1024.9 hPa West 29.6 km/h 29.6 km/h 51 % 0.0 mm 763.0 W/m2 CLR
11:33 20.1 °C 9.1 °C 1024.9 hPa WNW 24.1 km/h 24.1 km/h 49 % 0.0 mm 775.0 W/m2 CLR
11:38 20.0 °C 9.3 °C 1024.9 hPa NNW 24.1 km/h 24.1 km/h 50 % 0.0 mm 786.0 W/m2 CLR
11:43 20.2 °C 9.2 °C 1024.9 hPa WNW 31.5 km/h 31.5 km/h 49 % 0.0 mm 796.0 W/m2 CLR
11:48 20.3 °C 9.2 °C 1024.9 hPa WNW 18.5 km/h 18.5 km/h 49 % 0.0 mm 803.0 W/m2 CLR
11:53 20.2 °C 9.2 °C 1024.6 hPa West 24.1 km/h 24.1 km/h 49 % 0.0 mm 814.0 W/m2 CLR
11:58 19.9 °C 8.9 °C 1024.6 hPa NW 18.5 km/h 18.5 km/h 49 % 0.0 mm 823.0 W/m2 CLR
12:03 20.2 °C 9.2 °C 1024.6 hPa West 20.4 km/h 20.4 km/h 49 % 0.0 mm 831.0 W/m2 CLR
12:08 20.7 °C 9.6 °C 1024.6 hPa WNW 25.9 km/h 25.9 km/h 49 % 0.0 mm 837.0 W/m2 CLR
12:13 21.2 °C 9.4 °C 1024.6 hPa NNW 25.9 km/h 25.9 km/h 47 % 0.0 mm 849.0 W/m2 CLR
12:18 21.3 °C 9.5 °C 1024.6 hPa West 24.1 km/h 24.1 km/h 47 % 0.0 mm 858.0 W/m2 CLR
12:23 21.3 °C 9.6 °C 1024.6 hPa NW 22.2 km/h 22.2 km/h 47 % 0.0 mm 865.0 W/m2 CLR
12:28 21.5 °C 9.4 °C 1024.6 hPa WNW 29.6 km/h 29.6 km/h 46 % 0.0 mm 872.0 W/m2 CLR
12:33 21.6 °C 9.4 °C 1024.6 hPa WNW 29.0 km/h 29.0 km/h 46 % 0.0 mm 881.0 W/m2 CLR
12:38 21.8 °C 9.3 °C 1024.6 hPa WNW 22.5 km/h 22.5 km/h 45 % 0.0 mm 886.0 W/m2 CLR
12:43 21.5 °C 9.4 °C 1024.3 hPa WNW 25.9 km/h 25.9 km/h 46 % 0.0 mm 891.0 W/m2 CLR
12:48 21.7 °C 9.3 °C 1024.3 hPa NNW 16.7 km/h 16.7 km/h 45 % 0.0 mm 896.0 W/m2 CLR
12:49 21.8 °C 9.7 °C 1024.3 hPa NNW 24.1 km/h 24.1 km/h 46 % 0.0 mm 896.0 W/m2 CLR
12:54 22.1 °C 9.6 °C 1024.3 hPa North 25.9 km/h 25.9 km/h 45 % 0.0 mm 902.0 W/m2 CLR
12:59 22.2 °C 9.7 °C 1024.3 hPa NNW 22.2 km/h 22.2 km/h 45 % 0.0 mm 909.0 W/m2 CLR
13:04 22.5 °C 9.6 °C 1024.3 hPa NW 24.1 km/h 24.1 km/h 44 % 0.0 mm 916.0 W/m2 CLR
13:09 22.6 °C 9.7 °C 1024.3 hPa West 31.5 km/h 31.5 km/h 44 % 0.0 mm 919.0 W/m2 CLR
13:14 22.6 °C 9.7 °C 1024.3 hPa West 20.4 km/h 20.4 km/h 44 % 0.0 mm 923.0 W/m2 CLR
13:19 22.4 °C 9.9 °C 1024.3 hPa NW 22.5 km/h 22.5 km/h 45 % 0.0 mm 926.0 W/m2 CLR
13:24 22.8 °C 9.9 °C 1024.3 hPa WNW 14.8 km/h 14.8 km/h 44 % 0.0 mm 930.0 W/m2 CLR
13:29 23.2 °C 9.6 °C 1024.3 hPa North 22.2 km/h 22.2 km/h 42 % 0.0 mm 932.0 W/m2 CLR
13:34 23.3 °C 9.7 °C 1024.3 hPa WNW 22.5 km/h 22.5 km/h 42 % 0.0 mm 935.0 W/m2 CLR
13:39 23.2 °C 9.9 °C 1023.9 hPa NNW 16.7 km/h 16.7 km/h 43 % 0.0 mm 937.0 W/m2 CLR
13:44 23.7 °C 9.7 °C 1023.9 hPa NNW 25.9 km/h 25.9 km/h 41 % 0.0 mm 939.0 W/m2 CLR
13:49 23.8 °C 9.7 °C 1023.9 hPa NNW 22.2 km/h 22.2 km/h 41 % 0.0 mm 942.0 W/m2 CLR
13:54 23.9 °C 9.4 °C 1023.9 hPa NW 20.9 km/h 20.9 km/h 40 % 0.0 mm 942.0 W/m2 CLR
13:59 23.6 °C 9.6 °C 1023.9 hPa WNW 18.5 km/h 18.5 km/h 41 % 0.0 mm 942.0 W/m2 CLR
14:04 23.7 °C 9.6 °C 1023.9 hPa WNW 22.5 km/h 22.5 km/h 41 % 0.0 mm 940.0 W/m2 CLR
14:09 23.9 °C 9.5 °C 1023.6 hPa WNW 22.2 km/h 22.2 km/h 40 % 0.0 mm 942.0 W/m2 CLR
14:14 23.9 °C 9.5 °C 1023.6 hPa WNW 25.9 km/h 25.9 km/h 40 % 0.0 mm 942.0 W/m2 CLR
14:19 24.1 °C 9.6 °C 1023.6 hPa WNW 22.2 km/h 22.2 km/h 40 % 0.0 mm 944.0 W/m2 CLR
14:24 24.2 °C 9.8 °C 1023.6 hPa NW 29.6 km/h 29.6 km/h 40 % 0.0 mm 940.0 W/m2 CLR
14:29 24.3 °C 9.5 °C 1023.6 hPa NNW 18.5 km/h 18.5 km/h 39 % 0.0 mm 939.0 W/m2 CLR
14:34 24.7 °C 9.8 °C 1023.6 hPa NW 25.9 km/h 25.9 km/h 39 % 0.0 mm 935.0 W/m2 CLR
14:39 24.6 °C 9.7 °C 1023.6 hPa NNW 18.5 km/h 18.5 km/h 39 % 0.0 mm 933.0 W/m2 CLR
14:44 24.7 °C 9.8 °C 1023.2 hPa West 22.2 km/h 22.2 km/h 39 % 0.0 mm 932.0 W/m2 CLR
14:49 24.6 °C 9.7 °C 1023.2 hPa NW 16.1 km/h 16.1 km/h 39 % 0.0 mm 928.0 W/m2 CLR
14:54 24.8 °C 9.9 °C 1023.2 hPa NW 29.6 km/h 29.6 km/h 39 % 0.0 mm 923.0 W/m2 CLR
14:59 24.9 °C 10.0 °C 1023.2 hPa WNW 12.9 km/h 12.9 km/h 39 % 0.0 mm 918.0 W/m2 CLR
15:04 24.9 °C 9.7 °C 1023.2 hPa NW 29.6 km/h 29.6 km/h 38 % 0.0 mm 919.0 W/m2 CLR
15:09 24.9 °C 9.6 °C 1022.9 hPa NW 27.8 km/h 27.8 km/h 38 % 0.0 mm 911.0 W/m2 CLR
15:10 24.9 °C 9.6 °C 1022.9 hPa NW 27.8 km/h 27.8 km/h 38 % 0.0 mm 911.0 W/m2 CLR
15:15 25.1 °C 9.0 °C 1022.9 hPa NW 16.7 km/h 16.7 km/h 36 % 0.0 mm 905.0 W/m2 CLR
15:20 25.0 °C 9.7 °C 1022.9 hPa NW 13.0 km/h 13.0 km/h 38 % 0.0 mm 900.0 W/m2 CLR
15:25 25.3 °C 9.6 °C 1022.9 hPa North 22.2 km/h 22.2 km/h 37 % 0.0 mm 895.0 W/m2 CLR
15:30 25.5 °C 9.7 °C 1022.6 hPa NW 20.4 km/h 20.4 km/h 37 % 0.0 mm 891.0 W/m2 CLR
15:35 25.5 °C 9.7 °C 1022.6 hPa WNW 3.7 km/h   37 % 0.0 mm 881.0 W/m2 CLR
15:40 25.7 °C 9.9 °C 1022.6 hPa North 22.2 km/h 22.2 km/h 37 % 0.0 mm 875.0 W/m2 CLR
15:45 25.7 °C 9.9 °C 1022.6 hPa WNW 18.5 km/h 18.5 km/h 37 % 0.0 mm 868.0 W/m2 CLR
15:50 25.7 °C 9.9 °C 1022.6 hPa NW 18.5 km/h 18.5 km/h 37 % 0.0 mm 860.0 W/m2 CLR
15:55 25.8 °C 10.1 °C 1022.2 hPa WNW 19.3 km/h 19.3 km/h 37 % 0.0 mm 853.0 W/m2 CLR
16:00 26.2 °C 9.9 °C 1022.2 hPa NNW 24.1 km/h 24.1 km/h 36 % 0.0 mm 847.0 W/m2 CLR
16:05 26.2 °C 9.9 °C 1022.2 hPa WNW 20.4 km/h 20.4 km/h 36 % 0.0 mm 837.0 W/m2 CLR
16:10 26.0 °C 9.8 °C 1022.2 hPa NW 18.5 km/h 18.5 km/h 36 % 0.0 mm 826.0 W/m2 CLR
16:15 26.2 °C 9.9 °C 1022.2 hPa West 20.4 km/h 20.4 km/h 36 % 0.0 mm 819.0 W/m2 CLR
16:20 26.1 °C 9.8 °C 1022.2 hPa NNW 25.9 km/h 25.9 km/h 36 % 0.0 mm 812.0 W/m2 CLR
16:25 25.9 °C 9.7 °C 1022.2 hPa NNW 20.4 km/h 20.4 km/h 36 % 0.0 mm 800.0 W/m2 CLR
16:30 26.2 °C 9.9 °C 1021.9 hPa WNW 18.5 km/h 18.5 km/h 36 % 0.0 mm 788.0 W/m2 CLR
16:35 26.4 °C 9.7 °C 1021.9 hPa NW 22.2 km/h 22.2 km/h 35 % 0.0 mm 780.0 W/m2 CLR
16:40 26.6 °C 9.9 °C 1021.9 hPa West 25.9 km/h 25.9 km/h 35 % 0.0 mm 768.0 W/m2 CLR
16:45 26.7 °C 10.0 °C 1021.9 hPa WNW 16.7 km/h 16.7 km/h 35 % 0.0 mm 761.0 W/m2 CLR
16:50 26.8 °C 10.1 °C 1021.9 hPa NW 9.3 km/h 9.3 km/h 35 % 0.0 mm 749.0 W/m2 CLR
16:55 26.8 °C 10.1 °C 1021.6 hPa NW 22.2 km/h 22.2 km/h 35 % 0.0 mm 738.0 W/m2 CLR
17:00 26.8 °C 10.1 °C 1021.6 hPa WNW 18.5 km/h 18.5 km/h 35 % 0.0 mm 728.0 W/m2 CLR
17:05 26.8 °C 10.1 °C 1021.6 hPa WSW 1.9 km/h 1.9 km/h 35 % 0.0 mm 717.0 W/m2 CLR
17:10 27.0 °C 10.2 °C 1021.6 hPa NNW 18.5 km/h 18.5 km/h 35 % 0.0 mm 703.0 W/m2 CLR
17:15 27.1 °C 9.9 °C 1021.6 hPa West 18.5 km/h 18.5 km/h 34 % 0.0 mm 693.0 W/m2 CLR
17:20 27.1 °C 9.8 °C 1021.6 hPa WNW 25.9 km/h 25.9 km/h 34 % 0.0 mm 679.0 W/m2 CLR
17:25 27.1 °C 10.3 °C 1021.6 hPa NNE 16.7 km/h 16.7 km/h 35 % 0.0 mm 668.0 W/m2 CLR
17:30 27.3 °C 10.1 °C 1021.6 hPa NW 24.1 km/h 24.1 km/h 34 % 0.0 mm 654.0 W/m2 CLR
17:35 27.2 °C 10.0 °C 1021.2 hPa West 24.1 km/h 24.1 km/h 34 % 0.0 mm 642.0 W/m2 CLR
17:40 26.9 °C 10.2 °C 1021.2 hPa WNW 11.1 km/h 11.1 km/h 35 % 0.0 mm 628.0 W/m2 CLR
17:45 27.1 °C 10.3 °C 1021.2 hPa WNW 24.1 km/h 24.1 km/h 35 % 0.0 mm 613.0 W/m2 CLR
17:50 27.2 °C 10.4 °C 1021.2 hPa North 20.4 km/h 20.4 km/h 35 % 0.0 mm 598.0 W/m2 CLR
17:55 27.4 °C 10.6 °C 1021.2 hPa NW 13.0 km/h 13.0 km/h 35 % 0.0 mm 584.0 W/m2 CLR
18:00 27.6 °C 10.3 °C 1021.2 hPa WNW 13.0 km/h 13.0 km/h 34 % 0.0 mm 570.0 W/m2 CLR
18:05 27.6 °C 10.3 °C 1021.2 hPa WNW 11.1 km/h 11.1 km/h 34 % 0.0 mm 559.0 W/m2 CLR
18:10 27.5 °C 10.2 °C 1020.9 hPa NW 19.3 km/h 19.3 km/h 34 % 0.0 mm 545.0 W/m2 CLR
18:15 27.4 °C 10.1 °C 1020.9 hPa NNE 5.6 km/h 5.6 km/h 34 % 0.0 mm 527.0 W/m2 CLR
18:20 27.6 °C 10.3 °C 1020.9 hPa North 11.1 km/h 11.1 km/h 34 % 0.0 mm 513.0 W/m2 CLR
18:25 27.7 °C 10.4 °C 1020.9 hPa NNW 22.2 km/h 22.2 km/h 34 % 0.0 mm 499.0 W/m2 CLR
18:30 27.7 °C 10.4 °C 1020.9 hPa NW 13.0 km/h 13.0 km/h 34 % 0.0 mm 483.0 W/m2 CLR
18:35 27.9 °C 10.6 °C 1020.9 hPa NNW 14.5 km/h 14.5 km/h 34 % 0.0 mm 466.0 W/m2 CLR
18:40 27.6 °C 10.3 °C 1020.9 hPa North 20.4 km/h 20.4 km/h 34 % 0.0 mm 452.0 W/m2 CLR
18:45 27.6 °C 10.3 °C 1020.9 hPa NNW 12.9 km/h 12.9 km/h 34 % 0.0 mm 438.0 W/m2 CLR
18:50 27.8 °C 10.5 °C 1020.5 hPa NW 3.7 km/h 3.7 km/h 34 % 0.0 mm 424.0 W/m2 CLR
18:55 28.1 °C 10.3 °C 1020.5 hPa Calm   0.3 km/h 33 % 0.0 mm 408.0 W/m2 CLR
19:00 27.9 °C 10.6 °C 1020.9 hPa NW 24.1 km/h 24.1 km/h 34 % 0.0 mm 390.0 W/m2 CLR
19:05 27.7 °C 10.4 °C 1020.9 hPa NNW 14.5 km/h 14.5 km/h 34 % 0.0 mm 374.0 W/m2 CLR
19:10 27.6 °C 10.3 °C 1020.9 hPa NNW 18.5 km/h 18.5 km/h 34 % 0.0 mm 360.0 W/m2 CLR
19:15 27.6 °C 10.3 °C 1020.5 hPa NNW 24.1 km/h 24.1 km/h 34 % 0.0 mm 346.0 W/m2 CLR
19:20 27.3 °C 10.5 °C 1020.9 hPa NW 22.2 km/h 22.2 km/h 35 % 0.0 mm 327.0 W/m2 CLR
19:25 27.3 °C 10.5 °C 1020.9 hPa NW 20.4 km/h 20.4 km/h 35 % 0.0 mm 313.0 W/m2 CLR
19:30 27.4 °C 10.6 °C 1020.9 hPa NW 6.4 km/h 6.4 km/h 35 % 0.0 mm 299.0 W/m2 CLR
19:35 27.3 °C 10.1 °C 1020.9 hPa NW 18.5 km/h 18.5 km/h 34 % 0.0 mm 283.0 W/m2 CLR
19:40 27.3 °C 10.5 °C 1020.9 hPa West 19.3 km/h 19.3 km/h 35 % 0.0 mm 265.0 W/m2 CLR
19:45 27.2 °C 10.4 °C 1020.5 hPa NNW 20.9 km/h 20.9 km/h 35 % 0.0 mm 251.0 W/m2 CLR
19:50 27.3 °C 10.5 °C 1020.5 hPa NW 18.5 km/h 18.5 km/h 35 % 0.0 mm 237.0 W/m2 CLR
19:55 27.4 °C 10.1 °C 1020.5 hPa WNW 16.7 km/h 16.7 km/h 34 % 0.0 mm 221.0 W/m2 CLR
20:00 27.2 °C 10.0 °C 1020.9 hPa WNW 18.5 km/h 18.5 km/h 34 % 0.0 mm 200.0 W/m2 CLR
20:05 27.2 °C 9.9 °C 1020.9 hPa NNW 17.7 km/h 17.7 km/h 34 % 0.0 mm 185.0 W/m2 CLR
20:10 27.1 °C 9.9 °C 1020.9 hPa WNW 6.4 km/h 6.4 km/h 34 % 0.0 mm 167.0 W/m2 CLR
20:15 27.2 °C 9.9 °C 1020.9 hPa NNW 4.8 km/h 4.8 km/h 34 % 0.0 mm 151.0 W/m2 CLR
20:20 27.1 °C 9.9 °C 1020.9 hPa WNW 18.5 km/h 18.5 km/h 34 % 0.0 mm 135.0 W/m2 CLR
20:25 27.0 °C 9.8 °C 1020.9 hPa NNW 16.7 km/h 16.7 km/h 34 % 0.0 mm 116.0 W/m2 CLR
20:30 26.9 °C 10.1 °C 1020.9 hPa WNW 18.5 km/h 18.5 km/h 35 % 0.0 mm 100.0 W/m2 CLR
20:35 26.8 °C 10.1 °C 1020.9 hPa NNW 3.7 km/h 3.7 km/h 35 % 0.0 mm 86.0 W/m2 CLR
20:40 26.6 °C 9.9 °C 1020.9 hPa NW 18.5 km/h 18.5 km/h 35 % 0.0 mm 74.0 W/m2 FEW
20:45 26.5 °C 9.8 °C 1020.9 hPa NNW 14.5 km/h 14.5 km/h 35 % 0.0 mm 60.0 W/m2 SCT
20:50 26.4 °C 9.7 °C 1020.9 hPa NNW 11.1 km/h 11.1 km/h 35 % 0.0 mm 19.0 W/m2 BKN
20:55 26.4 °C 9.7 °C 1020.9 hPa NNW 3.7 km/h 3.7 km/h 35 % 0.0 mm 35.0 W/m2 BKN
21:00 26.3 °C 9.6 °C 1020.9 hPa NW 11.1 km/h 11.1 km/h 35 % 0.0 mm 26.0 W/m2 BKN
21:05 26.2 °C 9.5 °C 1021.2 hPa NW 11.1 km/h 11.1 km/h 35 % 0.0 mm 19.0 W/m2 BKN
21:10 26.0 °C 9.8 °C 1021.2 hPa WNW 3.7 km/h 3.7 km/h 36 % 0.0 mm 12.0 W/m2 BKN
21:15 25.7 °C 9.5 °C 1021.2 hPa NW 5.6 km/h 5.6 km/h 36 % 0.0 mm 12.0 W/m2 BKN
21:20 25.5 °C 9.3 °C 1021.2 hPa NW 3.7 km/h 3.7 km/h 36 % 0.0 mm 11.0 W/m2 BKN
21:25 25.3 °C 9.6 °C 1021.2 hPa WNW 5.6 km/h 5.6 km/h 37 % 0.0 mm 9.0 W/m2 BKN
21:30 25.1 °C 9.4 °C 1021.2 hPa NW 5.6 km/h 5.6 km/h 37 % 0.0 mm 5.0 W/m2 BKN
21:35 24.9 °C 9.2 °C 1021.2 hPa Calm     37 % 0.0 mm 5.0 W/m2 OVC
21:40 24.7 °C 9.4 °C 1021.2 hPa NW 5.6 km/h 5.6 km/h 38 % 0.0 mm 0.0 W/m2 OVC
21:46 24.5 °C 9.2 °C 1021.2 hPa Calm     38 % 0.0 mm 0.0 W/m2 OVC
21:50 24.3 °C 9.5 °C 1021.2 hPa Calm     39 % 0.0 mm 0.0 W/m2 CLR
21:56 24.1 °C 9.3 °C 1021.6 hPa Calm     39 % 0.0 mm 0.0 W/m2 CLR
22:01 23.7 °C 9.3 °C 1021.6 hPa Calm     40 % 0.0 mm 0.0 W/m2 CLR
22:06 23.4 °C 9.1 °C 1021.6 hPa Calm     40 % 0.0 mm 0.0 W/m2 CLR
22:11 23.3 °C 9.3 °C 1021.6 hPa Calm     41 % 0.0 mm 0.0 W/m2 CLR
22:16 23.2 °C 9.2 °C 1021.6 hPa Calm     41 % 0.0 mm 0.0 W/m2 CLR
22:21 23.1 °C 9.1 °C 1021.6 hPa Calm     41 % 0.0 mm 0.0 W/m2 CLR
22:26 22.9 °C 9.3 °C 1021.9 hPa Calm     42 % 0.0 mm 0.0 W/m2 CLR
22:31 22.8 °C 9.2 °C 1021.9 hPa WNW 7.4 km/h 7.4 km/h 42 % 0.0 mm 0.0 W/m2 CLR
22:32 22.9 °C 9.3 °C 1021.9 hPa WNW 7.4 km/h 7.4 km/h 42 % 0.0 mm 0.0 W/m2 CLR
22:37 22.9 °C 9.3 °C 1021.9 hPa WNW 5.6 km/h 5.6 km/h 42 % 0.0 mm 0.0 W/m2 CLR
22:42 22.9 °C 9.3 °C 1021.9 hPa WNW 5.6 km/h 5.6 km/h 42 % 0.0 mm 0.0 W/m2 CLR
22:47 22.8 °C 9.2 °C 1021.9 hPa WNW 3.7 km/h   42 % 0.0 mm 0.0 W/m2 CLR
22:52 22.7 °C 9.2 °C 1022.2 hPa Calm     42 % 0.0 mm 0.0 W/m2 CLR
22:57 22.7 °C 9.1 °C 1022.2 hPa WNW 16.7 km/h 16.7 km/h 42 % 0.0 mm 0.0 W/m2 CLR
23:02 22.7 °C 9.1 °C 1022.2 hPa NW 5.6 km/h 5.6 km/h 42 % 0.0 mm 0.0 W/m2 CLR
23:07 22.6 °C 9.4 °C 1022.2 hPa West 13.0 km/h 13.0 km/h 43 % 0.0 mm 0.0 W/m2 CLR
23:12 22.7 °C 9.1 °C 1022.2 hPa WNW 11.3 km/h 11.3 km/h 42 % 0.0 mm 0.0 W/m2 CLR
23:17 22.6 °C 9.4 °C 1022.2 hPa WNW 7.4 km/h 7.4 km/h 43 % 0.0 mm 0.0 W/m2 CLR
23:22 22.6 °C 9.3 °C 1022.2 hPa WNW 5.6 km/h 5.6 km/h 43 % 0.0 mm 0.0 W/m2 CLR
23:27 22.4 °C 9.2 °C 1022.6 hPa West 4.8 km/h 4.8 km/h 43 % 0.0 mm 0.0 W/m2 CLR
23:32 22.3 °C 9.4 °C 1022.6 hPa West 7.4 km/h 7.4 km/h 44 % 0.0 mm 0.0 W/m2 CLR
23:38 22.2 °C 9.4 °C 1022.6 hPa WNW 9.3 km/h 9.3 km/h 44 % 0.0 mm 0.0 W/m2 CLR
23:43 22.1 °C 9.3 °C 1022.6 hPa West 7.4 km/h 7.4 km/h 44 % 0.0 mm 0.0 W/m2 CLR
23:48 22.0 °C 9.5 °C 1022.6 hPa Calm     45 % 0.0 mm 0.0 W/m2 CLR
23:53 21.8 °C 9.7 °C 1022.6 hPa West 3.7 km/h 3.7 km/h 46 % 0.0 mm 0.0 W/m2 CLR
23:58 21.8 °C 9.7 °C 1022.6 hPa Calm     46 % 0.0 mm 0.0 W/m2 CLR
Lo Temps de Massalio
Compliments of Weather Underground - 1.25 mb